createdAt,value
2016-04-15T00:00:48.863Z,9.87
2016-04-15T00:01:48.882Z,9.91
2016-04-15T00:02:48.853Z,9.89
2016-04-15T00:03:48.871Z,9.83
2016-04-15T00:04:48.874Z,9.84
2016-04-15T00:05:48.845Z,9.87
2016-04-15T00:06:48.848Z,9.86
2016-04-15T00:07:48.867Z,9.8
2016-04-15T00:08:48.853Z,9.86
2016-04-15T00:09:48.856Z,9.91
2016-04-15T00:10:48.859Z,9.83
2016-04-15T00:11:48.831Z,9.87
2016-04-15T00:12:48.865Z,9.91
2016-04-15T00:13:48.836Z,9.86
2016-04-15T00:14:48.854Z,10.04
2016-04-15T00:15:48.841Z,10.01
2016-04-15T00:16:48.844Z,10.13
2016-04-15T00:17:48.831Z,10.04
2016-04-15T00:18:48.817Z,10.12
2016-04-15T00:19:48.836Z,10.16
2016-04-15T00:20:48.807Z,10.19
2016-04-15T00:21:48.810Z,10.12
2016-04-15T00:22:48.844Z,10.09
2016-04-15T00:23:48.815Z,10.2
2016-04-15T00:24:48.833Z,10.23
2016-04-15T00:25:48.821Z,10.16
2016-04-15T00:26:48.839Z,10.22
2016-04-15T00:27:48.811Z,10.13
2016-04-15T00:28:48.813Z,10.15
2016-04-15T00:29:48.816Z,10.2
2016-04-15T00:30:48.818Z,10.2
2016-04-15T00:31:48.681Z,10.19
2016-04-15T00:32:48.810Z,10.15
2016-04-15T00:33:48.797Z,10.13
2016-04-15T00:34:48.799Z,10.19
2016-04-15T00:35:48.810Z,10.16
2016-04-15T00:36:48.812Z,10.22
2016-04-15T00:37:48.815Z,10.26
2016-04-15T00:38:48.801Z,10.28
2016-04-15T00:39:48.804Z,10.3
2016-04-15T00:40:48.807Z,10.35
2016-04-15T00:41:48.809Z,10.38
2016-04-15T00:42:48.843Z,10.38
2016-04-15T00:43:48.830Z,10.46
2016-04-15T00:44:48.864Z,10.42
2016-04-15T00:45:48.820Z,10.54
2016-04-15T00:46:48.792Z,10.48
2016-04-15T00:47:48.795Z,10.51
2016-04-15T00:48:48.782Z,10.48
2016-04-15T00:49:48.784Z,10.48
2016-04-15T00:50:48.787Z,10.54
2016-04-15T00:51:48.790Z,10.56
2016-04-15T00:52:48.777Z,10.51
2016-04-15T00:53:48.795Z,10.51
2016-04-15T00:54:48.813Z,10.51
2016-04-15T00:55:48.785Z,10.41
2016-04-15T00:56:48.802Z,10.35
2016-04-15T00:57:48.805Z,10.4
2016-04-15T00:58:48.777Z,10.33
2016-04-15T00:59:48.763Z,10.37
2016-04-15T01:00:48.782Z,10.38
2016-04-15T01:01:48.769Z,10.41
2016-04-15T01:02:48.772Z,10.31
2016-04-15T01:03:48.775Z,10.34
2016-04-15T01:04:48.777Z,10.33
2016-04-15T01:05:48.765Z,10.3
2016-04-15T01:06:48.767Z,10.41
2016-04-15T01:07:48.770Z,10.41
2016-04-15T01:08:48.773Z,10.54
2016-04-15T01:09:48.744Z,10.57
2016-04-15T01:10:48.762Z,10.56
2016-04-15T01:11:48.781Z,10.54
2016-04-15T01:12:48.767Z,10.61
2016-04-15T01:13:48.770Z,10.59
2016-04-15T01:14:48.789Z,10.68
2016-04-15T01:15:48.759Z,10.76
2016-04-15T01:16:48.763Z,10.72
2016-04-15T01:17:48.765Z,10.76
2016-04-15T01:18:48.768Z,10.75
2016-04-15T01:19:48.771Z,10.71
2016-04-15T01:20:48.742Z,10.71
2016-04-15T01:21:48.776Z,10.81
2016-04-15T01:22:48.747Z,10.74
2016-04-15T01:23:48.750Z,10.76
2016-04-15T01:24:48.738Z,10.75
2016-04-15T01:25:48.740Z,10.79
2016-04-15T01:26:48.744Z,10.71
2016-04-15T01:27:48.746Z,10.75
2016-04-15T01:28:48.764Z,10.74
2016-04-15T01:29:49.111Z,10.75
2016-04-15T01:30:48.738Z,10.72
2016-04-15T01:31:48.741Z,10.68
2016-04-15T01:32:48.727Z,10.75
2016-04-15T01:33:48.762Z,10.78
2016-04-15T01:34:48.733Z,10.72
2016-04-15T01:35:48.736Z,10.71
2016-04-15T01:36:48.738Z,10.67
2016-04-15T01:37:48.741Z,10.71
2016-04-15T01:38:48.743Z,10.71
2016-04-15T01:39:48.746Z,10.76
2016-04-15T01:40:48.734Z,10.74
2016-04-15T01:41:48.736Z,10.75
2016-04-15T01:42:48.724Z,10.79
2016-04-15T01:43:48.757Z,10.74
2016-04-15T01:44:48.745Z,10.71
2016-04-15T01:45:48.748Z,10.69
2016-04-15T01:46:48.734Z,10.63
2016-04-15T01:47:48.768Z,10.57
2016-04-15T01:48:48.723Z,10.6
2016-04-15T01:49:48.726Z,10.64
2016-04-15T01:50:48.729Z,10.6
2016-04-15T01:51:48.716Z,10.57
2016-04-15T01:52:48.734Z,10.54
2016-04-15T01:53:48.736Z,10.57
2016-04-15T01:54:48.739Z,10.56
2016-04-15T01:55:48.711Z,10.57
2016-04-15T01:56:48.713Z,10.51
2016-04-15T01:57:48.717Z,10.51
2016-04-15T01:58:48.719Z,10.51
2016-04-15T01:59:48.785Z,10.4
2016-04-15T02:00:48.725Z,10.56
2016-04-15T02:01:48.744Z,10.4
2016-04-15T02:02:48.715Z,10.42
2016-04-15T02:03:48.733Z,10.41
2016-04-15T02:04:48.720Z,10.41
2016-04-15T02:05:48.769Z,10.41
2016-04-15T02:06:48.726Z,10.49
2016-04-15T02:07:48.729Z,10.59
2016-04-15T02:08:48.700Z,10.49
2016-04-15T02:09:48.702Z,10.48
2016-04-15T02:10:48.721Z,10.59
2016-04-15T02:11:48.708Z,10.48
2016-04-15T02:12:48.695Z,10.51
2016-04-15T02:13:48.729Z,10.51
2016-04-15T02:14:48.731Z,10.4
2016-04-15T02:15:48.687Z,10.37
2016-04-15T02:16:48.706Z,10.33
2016-04-15T02:17:48.708Z,10.3
2016-04-15T02:18:48.711Z,10.31
2016-04-15T02:19:48.681Z,10.25
2016-04-15T02:20:48.700Z,10.19
2016-04-15T02:21:48.687Z,10.15
2016-04-15T02:22:48.689Z,10.23
2016-04-15T02:23:48.693Z,10.26
2016-04-15T02:24:48.664Z,10.23
2016-04-15T02:25:48.667Z,10.31
2016-04-15T02:26:48.686Z,10.25
2016-04-15T02:27:48.672Z,10.3
2016-04-15T02:28:48.675Z,10.28
2016-04-15T02:29:48.756Z,10.26
2016-04-15T02:30:48.665Z,10.26
2016-04-15T02:31:48.668Z,10.3
2016-04-15T02:32:48.686Z,10.3
2016-04-15T02:33:48.657Z,10.33
2016-04-15T02:34:48.676Z,10.31
2016-04-15T02:35:48.678Z,10.26
2016-04-15T02:36:48.665Z,10.31
2016-04-15T02:37:48.652Z,10.31
2016-04-15T02:38:48.640Z,10.26
2016-04-15T02:39:48.643Z,10.26
2016-04-15T02:40:48.660Z,10.3
2016-04-15T02:41:48.679Z,10.28
2016-04-15T02:42:48.682Z,10.3
2016-04-15T02:43:48.668Z,10.3
2016-04-15T02:44:48.656Z,10.33
2016-04-15T02:45:48.658Z,10.3
2016-04-15T02:46:48.645Z,10.22
2016-04-15T02:47:48.648Z,10.22
2016-04-15T02:48:48.651Z,10.3
2016-04-15T02:49:48.670Z,10.19
2016-04-15T02:50:48.657Z,10.15
2016-04-15T02:51:48.643Z,10.1
2016-04-15T02:52:48.646Z,10.17
2016-04-15T02:53:48.665Z,10.17
2016-04-15T02:54:48.651Z,10.17
2016-04-15T02:55:48.654Z,10.3
2016-04-15T02:56:48.641Z,10.23
2016-04-15T02:57:48.659Z,10.25
2016-04-15T02:58:48.662Z,10.31
2016-04-15T02:59:48.649Z,10.26
2016-04-15T03:00:48.621Z,10.25
2016-04-15T03:01:48.624Z,10.33
2016-04-15T03:02:48.627Z,10.3
2016-04-15T03:03:48.629Z,10.34
2016-04-15T03:04:48.616Z,10.28
2016-04-15T03:05:48.635Z,10.3
2016-04-15T03:06:48.637Z,10.26
2016-04-15T03:07:48.624Z,10.2
2016-04-15T03:08:48.643Z,10.26
2016-04-15T03:09:48.629Z,10.19
2016-04-15T03:10:48.616Z,10.26
2016-04-15T03:11:48.618Z,10.23
2016-04-15T03:12:48.637Z,10.15
2016-04-15T03:13:48.640Z,10.2
2016-04-15T03:14:48.626Z,10.2
2016-04-15T03:15:48.614Z,10.19
2016-04-15T03:16:48.617Z,10.2
2016-04-15T03:17:48.603Z,10.23
2016-04-15T03:18:48.606Z,10.23
2016-04-15T03:19:48.609Z,10.2
2016-04-15T03:20:48.612Z,10.12
2016-04-15T03:21:48.615Z,10.19
2016-04-15T03:22:48.617Z,10.26
2016-04-15T03:23:48.604Z,10.23
2016-04-15T03:24:48.623Z,10.25
2016-04-15T03:25:48.625Z,10.33
2016-04-15T03:26:48.612Z,10.34
2016-04-15T03:27:48.583Z,10.34
2016-04-15T03:28:48.602Z,10.35
2016-04-15T03:29:48.589Z,10.4
2016-04-15T03:30:48.608Z,10.4
2016-04-15T03:31:48.611Z,10.4
2016-04-15T03:32:48.613Z,10.41
2016-04-15T03:33:48.600Z,10.42
2016-04-15T03:34:48.588Z,10.38
2016-04-15T03:35:48.590Z,10.34
2016-04-15T03:36:48.593Z,10.4
2016-04-15T03:37:48.579Z,10.4
2016-04-15T03:38:48.582Z,10.42
2016-04-15T03:39:48.569Z,10.46
2016-04-15T03:40:48.588Z,10.44
2016-04-15T03:41:48.590Z,10.44
2016-04-15T03:42:48.609Z,10.48
2016-04-15T03:43:48.596Z,10.51
2016-04-15T03:44:48.598Z,10.48
2016-04-15T03:45:48.585Z,10.51
2016-04-15T03:46:48.573Z,10.48
2016-04-15T03:47:48.576Z,10.54
2016-04-15T03:48:48.593Z,10.51
2016-04-15T03:49:48.581Z,10.4
2016-04-15T03:50:48.567Z,10.56
2016-04-15T03:51:48.586Z,10.41
2016-04-15T03:52:48.573Z,10.46
2016-04-15T03:53:48.559Z,10.44
2016-04-15T03:54:48.562Z,10.38
2016-04-15T03:55:48.722Z,10.44
2016-04-15T03:56:48.552Z,10.38
2016-04-15T03:57:48.555Z,10.33
2016-04-15T03:58:48.557Z,10.38
2016-04-15T03:59:48.575Z,10.44
2016-04-15T04:00:48.547Z,10.4
2016-04-15T04:01:48.550Z,10.4
2016-04-15T04:02:48.553Z,10.37
2016-04-15T04:03:48.571Z,10.37
2016-04-15T04:04:48.558Z,10.33
2016-04-15T04:05:48.561Z,10.35
2016-04-15T04:06:48.579Z,10.37
2016-04-15T04:07:48.394Z,10.42
2016-04-15T04:08:48.569Z,10.31
2016-04-15T04:09:48.571Z,10.23
2016-04-15T04:10:48.559Z,10.26
2016-04-15T04:11:48.562Z,10.25
2016-04-15T04:12:48.549Z,10.28
2016-04-15T04:13:48.535Z,10.3
2016-04-15T04:14:48.538Z,10.28
2016-04-15T04:15:48.557Z,10.35
2016-04-15T04:16:48.543Z,10.35
2016-04-15T04:17:48.562Z,10.35
2016-04-15T04:18:48.549Z,10.4
2016-04-15T04:19:48.536Z,10.37
2016-04-15T04:20:48.539Z,10.34
2016-04-15T04:21:48.526Z,10.42
2016-04-15T04:22:48.544Z,10.37
2016-04-15T04:23:48.547Z,10.42
2016-04-15T04:24:48.549Z,10.46
2016-04-15T04:25:48.552Z,10.44
2016-04-15T04:26:48.523Z,10.44
2016-04-15T04:27:48.558Z,10.51
2016-04-15T04:28:48.545Z,10.54
2016-04-15T04:29:48.548Z,10.53
2016-04-15T04:30:48.550Z,10.6
2016-04-15T04:31:48.537Z,10.61
2016-04-15T04:32:48.540Z,10.54
2016-04-15T04:33:48.527Z,10.57
2016-04-15T04:34:48.530Z,10.53
2016-04-15T04:35:48.547Z,10.57
2016-04-15T04:36:48.519Z,10.6
2016-04-15T04:37:48.522Z,10.54
2016-04-15T04:38:48.540Z,10.56
2016-04-15T04:39:48.527Z,10.61
2016-04-15T04:40:48.529Z,10.6
2016-04-15T04:41:48.532Z,10.56
2016-04-15T04:42:48.520Z,10.53
2016-04-15T04:43:48.523Z,10.61
2016-04-15T04:44:48.541Z,10.56
2016-04-15T04:45:48.559Z,10.59
2016-04-15T04:46:48.515Z,10.56
2016-04-15T04:47:48.534Z,10.48
2016-04-15T04:48:48.504Z,10.53
2016-04-15T04:49:48.523Z,10.51
2016-04-15T04:50:48.509Z,10.51
2016-04-15T04:51:48.591Z,10.44
2016-04-15T04:52:48.541Z,10.46
2016-04-15T04:53:48.360Z,10.48
2016-04-15T04:54:49.587Z,10.56
2016-04-15T04:55:48.526Z,10.54
2016-04-15T04:56:48.576Z,10.51
2016-04-15T04:57:48.516Z,10.44
2016-04-15T04:58:48.503Z,10.54
2016-04-15T04:59:48.506Z,10.51
2016-04-15T05:00:48.665Z,10.48
2016-04-15T05:01:48.511Z,10.53
2016-04-15T05:02:48.498Z,10.56
2016-04-15T05:03:48.501Z,10.4
2016-04-15T05:04:48.503Z,10.46
2016-04-15T05:05:48.506Z,10.54
2016-04-15T05:06:48.508Z,10.51
2016-04-15T05:07:48.496Z,10.38
2016-04-15T05:08:48.514Z,10.56
2016-04-15T05:09:48.501Z,10.44
2016-04-15T05:10:48.489Z,10.35
2016-04-15T05:11:48.522Z,10.38
2016-04-15T05:12:48.510Z,10.4
2016-04-15T05:13:48.513Z,10.44
2016-04-15T05:14:48.530Z,10.38
2016-04-15T05:15:48.565Z,10.49
2016-04-15T05:16:48.490Z,10.46
2016-04-15T05:17:48.476Z,10.56
2016-04-15T05:18:48.510Z,10.4
2016-04-15T05:19:48.497Z,10.53
2016-04-15T05:20:48.500Z,10.57
2016-04-15T05:21:48.503Z,10.4
2016-04-15T05:22:48.505Z,10.51
2016-04-15T05:23:48.508Z,10.56
2016-04-15T05:24:48.479Z,10.53
2016-04-15T05:25:48.497Z,10.54
2016-04-15T05:26:48.484Z,10.56
2016-04-15T05:27:48.487Z,10.57
2016-04-15T05:28:48.506Z,10.57
2016-04-15T05:29:48.493Z,10.57
2016-04-15T05:30:48.558Z,10.57
2016-04-15T05:31:48.483Z,10.6
2016-04-15T05:32:48.500Z,10.51
2016-04-15T05:33:48.503Z,10.51
2016-04-15T05:34:48.475Z,10.54
2016-04-15T05:35:48.493Z,10.49
2016-04-15T05:36:48.512Z,10.48
2016-04-15T05:37:48.499Z,10.48
2016-04-15T05:38:48.486Z,10.54
2016-04-15T05:39:48.489Z,10.48
2016-04-15T05:40:48.491Z,10.44
2016-04-15T05:41:48.478Z,10.54
2016-04-15T05:42:48.465Z,10.46
2016-04-15T05:43:48.499Z,10.54
2016-04-15T05:44:48.486Z,10.48
2016-04-15T05:45:48.598Z,10.56
2016-04-15T05:46:48.507Z,10.57
2016-04-15T05:47:48.479Z,10.53
2016-04-15T05:48:48.465Z,10.6
2016-04-15T05:49:48.484Z,10.46
2016-04-15T05:50:48.471Z,10.53
2016-04-15T05:51:48.489Z,10.54
2016-04-15T05:52:48.477Z,10.51
2016-04-15T05:53:48.495Z,10.54
2016-04-15T05:54:48.498Z,10.54
2016-04-15T05:55:48.470Z,10.53
2016-04-15T05:56:48.487Z,10.57
2016-04-15T05:57:48.490Z,10.54
2016-04-15T05:58:48.492Z,10.6
2016-04-15T05:59:48.495Z,10.61
2016-04-15T06:00:48.529Z,10.63
2016-04-15T06:01:48.516Z,10.6
2016-04-15T06:02:48.472Z,10.68
2016-04-15T06:03:48.490Z,10.68
2016-04-15T06:04:48.539Z,10.71
2016-04-15T06:05:48.511Z,10.74
2016-04-15T06:06:48.482Z,10.74
2016-04-15T06:07:48.469Z,10.78
2016-04-15T06:08:48.472Z,10.78
2016-04-15T06:09:48.491Z,10.81
2016-04-15T06:10:48.494Z,10.9
2016-04-15T06:11:48.450Z,10.96
2016-04-15T06:12:48.468Z,11.05
2016-04-15T06:13:48.455Z,11.17
2016-04-15T06:14:48.473Z,11.17
2016-04-15T06:15:48.507Z,11.18
2016-04-15T06:16:48.479Z,11.27
2016-04-15T06:17:48.496Z,11.33
2016-04-15T06:18:48.452Z,11.43
2016-04-15T06:19:48.487Z,11.35
2016-04-15T06:20:48.474Z,11.32
2016-04-15T06:21:48.466Z,11.37
2016-04-15T06:22:48.470Z,11.41
2016-04-15T06:23:48.458Z,11.47
2016-04-15T06:24:48.461Z,11.41
2016-04-15T06:25:48.478Z,11.44
2016-04-15T06:26:48.466Z,11.36
2016-04-15T06:27:48.457Z,11.32
2016-04-15T06:28:48.491Z,11.33
2016-04-15T06:29:48.462Z,11.35
2016-04-15T06:30:48.512Z,11.29
2016-04-15T06:31:48.483Z,11.37
2016-04-15T06:32:48.471Z,11.32
2016-04-15T06:33:48.474Z,11.33
2016-04-15T06:34:48.461Z,11.35
2016-04-15T06:35:48.557Z,11.3
2016-04-15T06:36:48.466Z,11.33
2016-04-15T06:37:48.469Z,11.33
2016-04-15T06:38:48.456Z,11.43
2016-04-15T06:39:48.459Z,11.29
2016-04-15T06:40:48.461Z,11.35
2016-04-15T06:41:48.495Z,11.43
2016-04-15T06:42:48.498Z,11.35
2016-04-15T06:43:48.484Z,11.36
2016-04-15T06:44:48.472Z,11.36
2016-04-15T06:45:48.474Z,11.43
2016-04-15T06:46:48.461Z,11.48
2016-04-15T06:47:48.480Z,11.36
2016-04-15T06:48:48.466Z,11.43
2016-04-15T06:49:48.501Z,11.43
2016-04-15T06:50:48.566Z,11.43
2016-04-15T06:51:48.459Z,11.43
2016-04-15T06:52:48.462Z,11.41
2016-04-15T06:53:48.464Z,11.47
2016-04-15T06:54:48.483Z,11.4
2016-04-15T06:55:48.469Z,11.41
2016-04-15T06:56:48.472Z,11.43
2016-04-15T06:57:48.491Z,11.45
2016-04-15T06:58:48.478Z,11.45
2016-04-15T06:59:48.497Z,11.48
2016-04-15T07:00:48.484Z,11.44
2016-04-15T07:01:48.471Z,11.36
2016-04-15T07:02:48.474Z,11.33
2016-04-15T07:03:48.491Z,11.35
2016-04-15T07:04:48.479Z,11.44
2016-04-15T07:05:48.466Z,11.43
2016-04-15T07:06:48.452Z,11.41
2016-04-15T07:07:48.471Z,11.37
2016-04-15T07:08:48.474Z,11.4
2016-04-15T07:09:48.476Z,11.33
2016-04-15T07:10:48.479Z,11.29
2016-04-15T07:11:48.481Z,11.3
2016-04-15T07:12:48.468Z,11.35
2016-04-15T07:13:48.487Z,11.4
2016-04-15T07:14:48.490Z,11.41
2016-04-15T07:15:48.540Z,11.4
2016-04-15T07:16:48.479Z,11.41
2016-04-15T07:17:48.482Z,11.4
2016-04-15T07:18:48.485Z,11.48
2016-04-15T07:19:48.473Z,11.48
2016-04-15T07:20:48.490Z,11.47
2016-04-15T07:21:48.482Z,11.43
2016-04-15T07:22:48.485Z,11.44
2016-04-15T07:23:48.488Z,11.47
2016-04-15T07:24:48.490Z,11.44
2016-04-15T07:25:48.493Z,11.57
2016-04-15T07:26:48.479Z,11.4
2016-04-15T07:27:48.487Z,11.43
2016-04-15T07:28:48.460Z,11.4
2016-04-15T07:29:48.493Z,11.44
2016-04-15T07:30:48.480Z,11.36
2016-04-15T07:31:48.499Z,11.4
2016-04-15T07:32:48.485Z,11.37
2016-04-15T07:33:48.488Z,11.51
2016-04-15T07:34:48.490Z,11.5
2016-04-15T07:35:48.540Z,11.51
2016-04-15T07:36:48.543Z,11.55
2016-04-15T07:37:48.498Z,11.55
2016-04-15T07:38:48.486Z,11.59
2016-04-15T07:39:48.489Z,11.5
2016-04-15T07:40:48.475Z,11.54
2016-04-15T07:41:48.479Z,11.52
2016-04-15T07:42:48.481Z,11.51
2016-04-15T07:43:48.500Z,11.47
2016-04-15T07:44:48.503Z,11.52
2016-04-15T07:45:48.505Z,11.52
2016-04-15T07:46:48.508Z,11.37
2016-04-15T07:47:48.494Z,11.37
2016-04-15T07:48:48.482Z,11.29
2016-04-15T07:49:48.485Z,11.29
2016-04-15T07:50:48.487Z,11.3
2016-04-15T07:51:48.490Z,11.27
2016-04-15T07:52:48.523Z,11.18
2016-04-15T07:53:48.479Z,11.26
2016-04-15T07:54:48.498Z,11.12
2016-04-15T07:55:48.500Z,11.17
2016-04-15T07:56:48.488Z,11.22
2016-04-15T07:57:48.490Z,11.27
2016-04-15T07:58:48.493Z,11.29
2016-04-15T07:59:48.495Z,11.33
2016-04-15T08:00:48.514Z,11.35
2016-04-15T08:01:48.485Z,11.4
2016-04-15T08:02:48.472Z,11.41
2016-04-15T08:03:48.490Z,11.3
2016-04-15T08:04:48.321Z,11.29
2016-04-15T08:05:48.496Z,11.23
2016-04-15T08:06:48.499Z,11.26
2016-04-15T08:07:48.502Z,11.25
2016-04-15T08:08:48.489Z,11.33
2016-04-15T08:09:48.492Z,11.23
2016-04-15T08:10:48.478Z,11.35
2016-04-15T08:11:48.481Z,11.4
2016-04-15T08:12:48.500Z,11.33
2016-04-15T08:13:48.517Z,11.37
2016-04-15T08:14:48.505Z,11.44
2016-04-15T08:15:48.475Z,11.37
2016-04-15T08:16:48.511Z,11.5
2016-04-15T08:17:48.481Z,11.57
2016-04-15T08:18:48.500Z,11.65
2016-04-15T08:19:48.472Z,11.77
2016-04-15T08:20:48.474Z,11.88
2016-04-15T08:21:48.514Z,11.91
2016-04-15T08:22:48.486Z,11.94
2016-04-15T08:23:48.488Z,12.1
2016-04-15T08:24:48.491Z,12.17
2016-04-15T08:25:48.493Z,12.18
2016-04-15T08:26:48.511Z,12.32
2016-04-15T08:27:48.499Z,12.37
2016-04-15T08:28:48.485Z,12.36
2016-04-15T08:29:48.505Z,12.47
2016-04-15T08:30:48.507Z,12.49
2016-04-15T08:31:48.499Z,12.5
2016-04-15T08:32:48.560Z,12.47
2016-04-15T08:33:48.839Z,12.47
2016-04-15T08:34:48.634Z,12.47
2016-04-15T08:35:48.664Z,12.49
2016-04-15T08:36:48.722Z,12.57
2016-04-15T08:37:48.724Z,12.5
2016-04-15T08:38:48.758Z,12.43
2016-04-15T08:39:48.760Z,12.35
2016-04-15T08:40:48.794Z,12.37
2016-04-15T08:41:48.795Z,12.28
2016-04-15T08:42:48.788Z,12.31
2016-04-15T08:43:48.827Z,12.25
2016-04-15T08:44:48.805Z,12.27
2016-04-15T08:45:48.828Z,12.36
2016-04-15T08:46:48.835Z,12.4
2016-04-15T08:47:48.825Z,12.27
2016-04-15T08:48:48.813Z,12.39
2016-04-15T08:49:48.849Z,12.31
2016-04-15T08:50:48.853Z,12.24
2016-04-15T08:51:48.874Z,12.21
2016-04-15T08:52:48.847Z,12.2
2016-04-15T08:53:48.834Z,12.18
2016-04-15T08:54:48.854Z,12.1
2016-04-15T08:55:48.857Z,12.13
2016-04-15T08:56:48.844Z,12.09
2016-04-15T08:57:48.831Z,12.03
2016-04-15T08:58:48.834Z,11.95
2016-04-15T08:59:48.854Z,11.99
2016-04-15T09:00:48.840Z,12.09
2016-04-15T09:01:48.859Z,12.04
2016-04-15T09:02:48.862Z,12.1
2016-04-15T09:03:48.834Z,12.17
2016-04-15T09:04:48.852Z,12.24
2016-04-15T09:05:48.871Z,12.31
2016-04-15T09:06:48.857Z,12.36
2016-04-15T09:07:48.860Z,12.42
2016-04-15T09:08:48.878Z,12.47
2016-04-15T09:09:48.865Z,12.58
2016-04-15T09:10:48.868Z,12.7
2016-04-15T09:11:48.870Z,12.83
2016-04-15T09:12:48.873Z,12.98
2016-04-15T09:13:48.860Z,13.01
2016-04-15T09:14:48.863Z,13
2016-04-15T09:15:48.881Z,13.03
2016-04-15T09:16:48.869Z,13.16
2016-04-15T09:17:48.856Z,13.18
2016-04-15T09:18:48.874Z,13.2
2016-04-15T09:19:48.892Z,13.13
2016-04-15T09:20:48.894Z,13
2016-04-15T09:21:48.882Z,13.01
2016-04-15T09:22:48.885Z,13
2016-04-15T09:23:48.888Z,13
2016-04-15T09:24:48.874Z,13.08
2016-04-15T09:25:48.894Z,13.04
2016-04-15T09:26:48.911Z,13.11
2016-04-15T09:27:48.899Z,13.11
2016-04-15T09:28:48.885Z,13.01
2016-04-15T09:29:48.904Z,13.01
2016-04-15T09:30:48.876Z,13.12
2016-04-15T09:31:48.893Z,13.13
2016-04-15T09:32:48.896Z,13.04
2016-04-15T09:33:48.914Z,13.13
2016-04-15T09:34:48.901Z,13.03
2016-04-15T09:35:48.904Z,13.01
2016-04-15T09:36:48.892Z,13.23
2016-04-15T09:37:48.926Z,13.2
2016-04-15T09:38:48.897Z,13.39
2016-04-15T09:39:48.915Z,13.59
2016-04-15T09:40:48.902Z,13.65
2016-04-15T09:41:48.905Z,13.74
2016-04-15T09:42:48.908Z,13.78
2016-04-15T09:43:48.910Z,13.85
2016-04-15T09:44:48.913Z,13.93
2016-04-15T09:45:48.915Z,13.96
2016-04-15T09:46:48.918Z,13.93
2016-04-15T09:47:48.905Z,13.78
2016-04-15T09:48:48.939Z,13.87
2016-04-15T09:49:48.927Z,13.89
2016-04-15T09:50:48.913Z,13.74
2016-04-15T09:51:48.916Z,13.86
2016-04-15T09:52:48.934Z,13.83
2016-04-15T09:53:48.921Z,13.89
2016-04-15T09:54:48.908Z,14
2016-04-15T09:55:48.786Z,13.9
2016-04-15T09:56:48.930Z,13.92
2016-04-15T09:57:48.949Z,13.78
2016-04-15T09:58:48.951Z,13.9
2016-04-15T09:59:48.938Z,13.79
2016-04-15T10:00:48.971Z,13.77
2016-04-15T10:01:48.959Z,13.78
2016-04-15T10:02:48.961Z,13.65
2016-04-15T10:03:48.964Z,13.62
2016-04-15T10:04:48.951Z,13.6
2016-04-15T10:05:48.969Z,13.62
2016-04-15T10:06:48.972Z,13.53
2016-04-15T10:07:48.943Z,13.53
2016-04-15T10:08:48.978Z,13.44
2016-04-15T10:09:48.981Z,13.52
2016-04-15T10:10:48.967Z,13.39
2016-04-15T10:11:48.970Z,13.38
2016-04-15T10:12:49.003Z,13.33
2016-04-15T10:13:48.975Z,13.38
2016-04-15T10:14:48.994Z,13.37
2016-04-15T10:15:48.964Z,13.3
2016-04-15T10:16:49.202Z,13.35
2016-04-15T10:17:49.001Z,13.35
2016-04-15T10:18:48.972Z,13.37
2016-04-15T10:19:49.007Z,13.42
2016-04-15T10:20:48.994Z,13.39
2016-04-15T10:21:48.981Z,13.46
2016-04-15T10:22:48.983Z,13.41
2016-04-15T10:23:49.002Z,13.49
2016-04-15T10:24:48.988Z,13.47
2016-04-15T10:25:49.007Z,13.52
2016-04-15T10:26:48.244Z,13.56
2016-04-15T10:27:49.013Z,13.47
2016-04-15T10:28:49.000Z,13.41
2016-04-15T10:29:49.003Z,13.37
2016-04-15T10:30:49.005Z,13.46
2016-04-15T10:31:49.383Z,13.37
2016-04-15T10:32:49.010Z,13.41
2016-04-15T10:33:49.013Z,13.37
2016-04-15T10:34:49.015Z,13.33
2016-04-15T10:35:49.003Z,13.28
2016-04-15T10:36:49.006Z,13.27
2016-04-15T10:37:49.023Z,13.3
2016-04-15T10:38:49.027Z,13.3
2016-04-15T10:39:49.014Z,13.16
2016-04-15T10:40:49.032Z,13.25
2016-04-15T10:41:49.034Z,13.12
2016-04-15T10:42:49.006Z,13.13
2016-04-15T10:43:49.040Z,13.12
2016-04-15T10:44:49.027Z,13
2016-04-15T10:45:49.061Z,13.03
2016-04-15T10:46:48.907Z,13.03
2016-04-15T10:47:49.019Z,13.03
2016-04-15T10:48:49.038Z,13.03
2016-04-15T10:49:49.024Z,12.95
2016-04-15T10:50:49.044Z,12.94
2016-04-15T10:51:49.046Z,12.93
2016-04-15T10:52:49.049Z,13.01
2016-04-15T10:53:49.051Z,12.83
2016-04-15T10:54:49.038Z,12.86
2016-04-15T10:55:49.041Z,12.86
2016-04-15T10:56:49.044Z,12.9
2016-04-15T10:57:49.047Z,12.97
2016-04-15T10:58:49.034Z,13
2016-04-15T10:59:49.036Z,12.98
2016-04-15T11:00:49.055Z,13.11
2016-04-15T11:01:49.058Z,13.05
2016-04-15T11:02:49.044Z,13.22
2016-04-15T11:03:49.063Z,13.19
2016-04-15T11:04:49.049Z,13.2
2016-04-15T11:05:49.052Z,13.15
2016-04-15T11:06:49.070Z,13.13
2016-04-15T11:07:49.089Z,13.12
2016-04-15T11:08:49.060Z,13.12
2016-04-15T11:09:49.063Z,13.2
2016-04-15T11:10:49.066Z,13.16
2016-04-15T11:11:49.068Z,13.27
2016-04-15T11:12:49.071Z,13.3
2016-04-15T11:13:49.059Z,13.33
2016-04-15T11:14:49.061Z,13.41
2016-04-15T11:15:49.079Z,13.59
2016-04-15T11:16:48.925Z,13.7
2016-04-15T11:17:49.069Z,13.79
2016-04-15T11:18:49.086Z,13.92
2016-04-15T11:19:49.074Z,14.2
2016-04-15T11:20:49.061Z,14.36
2016-04-15T11:21:49.080Z,14.44
2016-04-15T11:22:49.083Z,14.43
2016-04-15T11:23:49.100Z,14.55
2016-04-15T11:24:49.072Z,14.48
2016-04-15T11:25:49.105Z,14.5
2016-04-15T11:26:49.077Z,14.53
2016-04-15T11:27:49.096Z,14.58
2016-04-15T11:28:49.083Z,14.65
2016-04-15T11:29:49.086Z,14.65
2016-04-15T11:30:49.105Z,14.66
2016-04-15T11:31:49.091Z,14.62
2016-04-15T11:32:49.094Z,14.54
2016-04-15T11:33:49.112Z,14.66
2016-04-15T11:34:49.099Z,14.78
2016-04-15T11:35:49.227Z,15.02
2016-04-15T11:36:49.057Z,15.02
2016-04-15T11:37:49.092Z,14.96
2016-04-15T11:38:49.125Z,14.99
2016-04-15T11:39:49.113Z,14.91
2016-04-15T11:40:49.115Z,14.94
2016-04-15T11:41:49.931Z,14.91
2016-04-15T11:42:49.120Z,15
2016-04-15T11:43:49.139Z,14.99
2016-04-15T11:44:49.157Z,15.07
2016-04-15T11:45:49.128Z,15.03
2016-04-15T11:46:49.162Z,15.17
2016-04-15T11:47:49.165Z,15.11
2016-04-15T11:48:49.152Z,15.19
2016-04-15T11:49:49.139Z,15.27
2016-04-15T11:50:49.127Z,15.36
2016-04-15T11:51:49.144Z,15.22
2016-04-15T11:52:49.147Z,15.03
2016-04-15T11:53:49.150Z,15.19
2016-04-15T11:54:49.168Z,15.22
2016-04-15T11:55:49.171Z,15.42
2016-04-15T11:56:49.174Z,15.51
2016-04-15T11:57:49.177Z,15.58
2016-04-15T11:58:49.164Z,15.58
2016-04-15T11:59:49.182Z,15.57
2016-04-15T12:00:49.169Z,15.54
2016-04-15T12:01:49.187Z,15.39
2016-04-15T12:02:49.174Z,15.22
2016-04-15T12:03:49.176Z,15.25
2016-04-15T12:04:49.179Z,15.24
2016-04-15T12:05:49.198Z,15.39
2016-04-15T12:06:49.185Z,15.28
2016-04-15T12:07:49.203Z,15.35
2016-04-15T12:08:48.910Z,15.44
2016-04-15T12:09:49.195Z,15.51
2016-04-15T12:10:49.198Z,15.58
2016-04-15T12:11:50.154Z,15.61
2016-04-15T12:12:49.219Z,15.64
2016-04-15T12:13:49.222Z,15.73
2016-04-15T12:14:49.208Z,15.82
2016-04-15T12:15:49.211Z,15.91
2016-04-15T12:16:49.244Z,15.91
2016-04-15T12:17:49.264Z,15.98
2016-04-15T12:18:48.500Z,16.04
2016-04-15T12:19:49.238Z,16.05
2016-04-15T12:20:49.272Z,16.12
2016-04-15T12:21:49.071Z,16.2
2016-04-15T12:22:49.246Z,16.29
2016-04-15T12:23:49.232Z,16.23
2016-04-15T12:24:49.251Z,16.13
2016-04-15T12:25:49.279Z,16.15
2016-04-15T12:26:49.250Z,16.13
2016-04-15T12:27:49.269Z,16.24
2016-04-15T12:28:49.256Z,16.28
2016-04-15T12:29:49.259Z,16.24
2016-04-15T12:30:49.387Z,16.15
2016-04-15T12:31:49.280Z,16.13
2016-04-15T12:32:49.329Z,16.12
2016-04-15T12:33:49.378Z,16.13
2016-04-15T12:34:49.303Z,16.12
2016-04-15T12:35:49.291Z,16.28
2016-04-15T12:36:49.294Z,16.16
2016-04-15T12:37:49.297Z,16.32
2016-04-15T12:38:49.314Z,16.17
2016-04-15T12:39:49.317Z,16.41
2016-04-15T12:40:49.304Z,16.6
2016-04-15T12:41:49.307Z,16.68
2016-04-15T12:42:49.294Z,16.76
2016-04-15T12:43:49.374Z,16.84
2016-04-15T12:44:49.893Z,16.93
2016-04-15T12:45:49.379Z,17.06
2016-04-15T12:46:49.446Z,17.2
2016-04-15T12:47:49.494Z,17.31
2016-04-15T12:48:49.419Z,17.31
2016-04-15T12:49:49.594Z,17.16
2016-04-15T12:50:49.737Z,17.15
2016-04-15T12:51:49.537Z,17.16
2016-04-15T12:52:50.132Z,17.3
2016-04-15T12:53:50.807Z,17.29
2016-04-15T12:54:50.591Z,17.38
2016-04-15T12:55:50.719Z,17.38
2016-04-15T12:56:50.034Z,17.3
2016-04-15T12:57:50.443Z,17.42